sensor_id;sensor_type;location;lat;lon;timestamp;P1;durP1;ratioP1;P2;durP2;ratioP2
19024;SDS011;9645;51.448;6.260;2023-11-19T00:00:06;12.47;;;6.37;;
19024;SDS011;9645;51.448;6.260;2023-11-19T00:02:37;15.57;;;6.17;;
19024;SDS011;9645;51.448;6.260;2023-11-19T00:05:05;11.93;;;6.30;;
19024;SDS011;9645;51.448;6.260;2023-11-19T00:07:34;11.67;;;5.70;;
19024;SDS011;9645;51.448;6.260;2023-11-19T00:10:01;9.63;;;6.30;;
19024;SDS011;9645;51.448;6.260;2023-11-19T00:12:35;20.63;;;5.83;;
19024;SDS011;9645;51.448;6.260;2023-11-19T00:15:02;9.47;;;5.60;;
19024;SDS011;9645;51.448;6.260;2023-11-19T00:17:30;10.73;;;6.20;;
19024;SDS011;9645;51.448;6.260;2023-11-19T00:19:58;10.63;;;5.83;;
19024;SDS011;9645;51.448;6.260;2023-11-19T00:22:26;10.00;;;6.23;;
19024;SDS011;9645;51.448;6.260;2023-11-19T00:24:53;11.10;;;5.90;;
19024;SDS011;9645;51.448;6.260;2023-11-19T00:27:20;11.83;;;5.70;;
19024;SDS011;9645;51.448;6.260;2023-11-19T00:29:47;17.70;;;6.10;;
19024;SDS011;9645;51.448;6.260;2023-11-19T00:32:14;19.83;;;5.27;;
19024;SDS011;9645;51.448;6.260;2023-11-19T00:34:43;19.00;;;6.10;;
19024;SDS011;9645;51.448;6.260;2023-11-19T00:37:14;16.10;;;5.67;;
19024;SDS011;9645;51.448;6.260;2023-11-19T00:39:41;12.43;;;5.50;;
19024;SDS011;9645;51.448;6.260;2023-11-19T00:42:09;8.17;;;5.40;;
19024;SDS011;9645;51.448;6.260;2023-11-19T00:44:36;8.63;;;4.40;;
19024;SDS011;9645;51.448;6.260;2023-11-19T00:47:04;8.97;;;5.07;;
19024;SDS011;9645;51.448;6.260;2023-11-19T00:49:31;6.00;;;4.40;;
19024;SDS011;9645;51.448;6.260;2023-11-19T00:51:59;8.23;;;4.70;;
19024;SDS011;9645;51.448;6.260;2023-11-19T00:54:28;4.57;;;4.03;;
19024;SDS011;9645;51.448;6.260;2023-11-19T00:56:56;9.70;;;4.93;;
19024;SDS011;9645;51.448;6.260;2023-11-19T00:59:23;7.67;;;4.50;;
19024;SDS011;9645;51.448;6.260;2023-11-19T01:01:50;12.07;;;4.10;;
19024;SDS011;9645;51.448;6.260;2023-11-19T01:04:17;10.50;;;4.10;;
19024;SDS011;9645;51.448;6.260;2023-11-19T01:06:45;5.87;;;4.27;;
19024;SDS011;9645;51.448;6.260;2023-11-19T01:09:12;7.23;;;3.80;;
19024;SDS011;9645;51.448;6.260;2023-11-19T01:11:41;5.50;;;4.40;;
19024;SDS011;9645;51.448;6.260;2023-11-19T01:14:08;5.57;;;4.00;;
19024;SDS011;9645;51.448;6.260;2023-11-19T01:16:35;5.90;;;4.07;;
19024;SDS011;9645;51.448;6.260;2023-11-19T01:19:03;6.07;;;3.97;;
19024;SDS011;9645;51.448;6.260;2023-11-19T01:21:30;4.67;;;3.67;;
19024;SDS011;9645;51.448;6.260;2023-11-19T01:23:57;4.00;;;3.40;;
19024;SDS011;9645;51.448;6.260;2023-11-19T01:26:25;4.13;;;3.13;;
19024;SDS011;9645;51.448;6.260;2023-11-19T01:28:53;4.33;;;3.30;;
19024;SDS011;9645;51.448;6.260;2023-11-19T01:31:20;6.10;;;3.80;;
19024;SDS011;9645;51.448;6.260;2023-11-19T01:33:47;4.83;;;3.20;;
19024;SDS011;9645;51.448;6.260;2023-11-19T01:36:14;6.57;;;3.70;;
19024;SDS011;9645;51.448;6.260;2023-11-19T01:38:42;6.07;;;3.50;;
19024;SDS011;9645;51.448;6.260;2023-11-19T01:41:09;7.80;;;3.60;;
19024;SDS011;9645;51.448;6.260;2023-11-19T01:43:37;5.07;;;3.30;;
19024;SDS011;9645;51.448;6.260;2023-11-19T01:46:07;4.40;;;3.23;;
19024;SDS011;9645;51.448;6.260;2023-11-19T01:48:36;10.93;;;4.27;;
19024;SDS011;9645;51.448;6.260;2023-11-19T01:51:05;7.73;;;3.50;;
19024;SDS011;9645;51.448;6.260;2023-11-19T01:53:33;6.33;;;3.63;;
19024;SDS011;9645;51.448;6.260;2023-11-19T01:56:01;5.13;;;3.63;;
19024;SDS011;9645;51.448;6.260;2023-11-19T01:58:29;14.20;;;4.20;;
19024;SDS011;9645;51.448;6.260;2023-11-19T02:00:57;14.60;;;4.80;;
19024;SDS011;9645;51.448;6.260;2023-11-19T02:03:26;15.17;;;4.23;;
19024;SDS011;9645;51.448;6.260;2023-11-19T02:05:54;12.23;;;3.83;;
19024;SDS011;9645;51.448;6.260;2023-11-19T02:08:21;9.70;;;3.50;;
19024;SDS011;9645;51.448;6.260;2023-11-19T02:10:49;8.70;;;3.80;;
19024;SDS011;9645;51.448;6.260;2023-11-19T02:13:16;9.27;;;3.43;;
19024;SDS011;9645;51.448;6.260;2023-11-19T02:15:44;14.60;;;3.40;;
19024;SDS011;9645;51.448;6.260;2023-11-19T02:18:17;17.07;;;3.63;;
19024;SDS011;9645;51.448;6.260;2023-11-19T02:20:45;6.47;;;3.07;;
19024;SDS011;9645;51.448;6.260;2023-11-19T02:23:13;10.70;;;3.37;;
19024;SDS011;9645;51.448;6.260;2023-11-19T02:25:40;17.37;;;4.00;;
19024;SDS011;9645;51.448;6.260;2023-11-19T02:28:09;14.07;;;3.23;;
19024;SDS011;9645;51.448;6.260;2023-11-19T02:30:37;10.47;;;3.17;;
19024;SDS011;9645;51.448;6.260;2023-11-19T02:33:08;12.63;;;3.00;;
19024;SDS011;9645;51.448;6.260;2023-11-19T02:35:35;11.83;;;2.83;;
19024;SDS011;9645;51.448;6.260;2023-11-19T02:38:03;8.63;;;3.47;;
19024;SDS011;9645;51.448;6.260;2023-11-19T02:40:31;7.93;;;3.10;;
19024;SDS011;9645;51.448;6.260;2023-11-19T02:42:59;9.33;;;3.00;;
19024;SDS011;9645;51.448;6.260;2023-11-19T02:45:28;7.63;;;2.90;;
19024;SDS011;9645;51.448;6.260;2023-11-19T02:47:56;11.60;;;3.30;;
19024;SDS011;9645;51.448;6.260;2023-11-19T02:50:25;14.00;;;3.13;;
19024;SDS011;9645;51.448;6.260;2023-11-19T02:52:53;20.17;;;3.53;;
19024;SDS011;9645;51.448;6.260;2023-11-19T02:55:21;9.10;;;2.80;;
19024;SDS011;9645;51.448;6.260;2023-11-19T02:57:49;10.53;;;2.87;;
19024;SDS011;9645;51.448;6.260;2023-11-19T03:00:18;13.10;;;2.90;;
19024;SDS011;9645;51.448;6.260;2023-11-19T03:02:50;11.07;;;3.27;;
19024;SDS011;9645;51.448;6.260;2023-11-19T03:05:24;16.87;;;3.40;;
19024;SDS011;9645;51.448;6.260;2023-11-19T03:07:52;25.63;;;3.80;;
19024;SDS011;9645;51.448;6.260;2023-11-19T03:10:19;18.80;;;3.53;;
19024;SDS011;9645;51.448;6.260;2023-11-19T03:12:46;18.73;;;4.27;;
19024;SDS011;9645;51.448;6.260;2023-11-19T03:15:13;23.70;;;3.53;;
19024;SDS011;9645;51.448;6.260;2023-11-19T03:17:41;21.77;;;4.00;;
19024;SDS011;9645;51.448;6.260;2023-11-19T03:20:11;22.00;;;4.23;;
19024;SDS011;9645;51.448;6.260;2023-11-19T03:22:40;23.73;;;4.20;;
19024;SDS011;9645;51.448;6.260;2023-11-19T03:25:09;17.63;;;3.53;;
19024;SDS011;9645;51.448;6.260;2023-11-19T03:27:36;17.67;;;3.03;;
19024;SDS011;9645;51.448;6.260;2023-11-19T03:30:04;20.00;;;3.93;;
19024;SDS011;9645;51.448;6.260;2023-11-19T03:32:31;19.63;;;3.80;;
19024;SDS011;9645;51.448;6.260;2023-11-19T03:35:00;27.13;;;3.30;;
19024;SDS011;9645;51.448;6.260;2023-11-19T03:37:30;20.80;;;3.03;;
19024;SDS011;9645;51.448;6.260;2023-11-19T03:39:58;41.37;;;4.30;;
19024;SDS011;9645;51.448;6.260;2023-11-19T03:42:26;23.47;;;3.87;;
19024;SDS011;9645;51.448;6.260;2023-11-19T03:44:52;19.67;;;3.47;;
19024;SDS011;9645;51.448;6.260;2023-11-19T03:47:19;18.93;;;3.23;;
19024;SDS011;9645;51.448;6.260;2023-11-19T03:49:47;18.00;;;3.10;;
19024;SDS011;9645;51.448;6.260;2023-11-19T03:52:15;15.53;;;3.63;;
19024;SDS011;9645;51.448;6.260;2023-11-19T03:54:44;18.03;;;3.43;;
19024;SDS011;9645;51.448;6.260;2023-11-19T03:57:11;20.50;;;3.40;;
19024;SDS011;9645;51.448;6.260;2023-11-19T03:59:39;16.03;;;3.90;;
19024;SDS011;9645;51.448;6.260;2023-11-19T04:02:06;23.87;;;3.57;;
19024;SDS011;9645;51.448;6.260;2023-11-19T04:04:33;22.90;;;3.53;;
19024;SDS011;9645;51.448;6.260;2023-11-19T04:07:01;20.47;;;3.40;;
19024;SDS011;9645;51.448;6.260;2023-11-19T04:09:29;23.73;;;3.60;;
19024;SDS011;9645;51.448;6.260;2023-11-19T04:11:59;21.43;;;3.20;;
19024;SDS011;9645;51.448;6.260;2023-11-19T04:14:26;28.43;;;3.80;;
19024;SDS011;9645;51.448;6.260;2023-11-19T04:16:54;31.07;;;3.40;;
19024;SDS011;9645;51.448;6.260;2023-11-19T04:19:21;32.03;;;4.30;;
19024;SDS011;9645;51.448;6.260;2023-11-19T04:21:48;22.27;;;3.53;;
19024;SDS011;9645;51.448;6.260;2023-11-19T04:24:17;22.63;;;3.87;;
19024;SDS011;9645;51.448;6.260;2023-11-19T04:26:45;28.97;;;4.33;;
19024;SDS011;9645;51.448;6.260;2023-11-19T04:29:14;17.87;;;3.20;;
19024;SDS011;9645;51.448;6.260;2023-11-19T04:31:42;17.13;;;3.40;;
19024;SDS011;9645;51.448;6.260;2023-11-19T04:34:11;20.27;;;3.70;;
19024;SDS011;9645;51.448;6.260;2023-11-19T04:36:38;20.30;;;3.33;;
19024;SDS011;9645;51.448;6.260;2023-11-19T04:39:05;27.10;;;4.37;;
19024;SDS011;9645;51.448;6.260;2023-11-19T04:41:44;27.80;;;3.97;;
19024;SDS011;9645;51.448;6.260;2023-11-19T04:44:13;15.20;;;2.83;;
19024;SDS011;9645;51.448;6.260;2023-11-19T04:46:41;26.30;;;3.67;;
19024;SDS011;9645;51.448;6.260;2023-11-19T04:49:09;24.83;;;3.33;;
19024;SDS011;9645;51.448;6.260;2023-11-19T04:51:39;22.53;;;3.70;;
19024;SDS011;9645;51.448;6.260;2023-11-19T04:54:07;47.43;;;5.50;;
19024;SDS011;9645;51.448;6.260;2023-11-19T04:56:35;29.43;;;3.47;;
19024;SDS011;9645;51.448;6.260;2023-11-19T04:59:02;23.83;;;3.17;;
19024;SDS011;9645;51.448;6.260;2023-11-19T05:01:32;33.63;;;2.93;;
19024;SDS011;9645;51.448;6.260;2023-11-19T05:03:59;29.27;;;3.33;;
19024;SDS011;9645;51.448;6.260;2023-11-19T05:06:26;23.53;;;3.20;;
19024;SDS011;9645;51.448;6.260;2023-11-19T05:08:54;20.10;;;4.17;;
19024;SDS011;9645;51.448;6.260;2023-11-19T05:11:22;28.47;;;3.90;;
19024;SDS011;9645;51.448;6.260;2023-11-19T05:13:49;19.83;;;3.97;;
19024;SDS011;9645;51.448;6.260;2023-11-19T05:16:16;30.50;;;4.87;;
19024;SDS011;9645;51.448;6.260;2023-11-19T05:18:45;27.73;;;3.40;;
19024;SDS011;9645;51.448;6.260;2023-11-19T05:21:13;29.53;;;4.40;;
19024;SDS011;9645;51.448;6.260;2023-11-19T05:23:40;29.57;;;3.83;;
19024;SDS011;9645;51.448;6.260;2023-11-19T05:26:07;30.90;;;4.33;;
19024;SDS011;9645;51.448;6.260;2023-11-19T05:28:36;29.80;;;3.93;;
19024;SDS011;9645;51.448;6.260;2023-11-19T05:31:05;26.87;;;4.13;;
19024;SDS011;9645;51.448;6.260;2023-11-19T05:33:32;20.20;;;3.67;;
19024;SDS011;9645;51.448;6.260;2023-11-19T05:36:01;27.53;;;4.00;;
19024;SDS011;9645;51.448;6.260;2023-11-19T05:38:29;27.53;;;4.00;;
19024;SDS011;9645;51.448;6.260;2023-11-19T05:40:56;35.43;;;4.20;;
19024;SDS011;9645;51.448;6.260;2023-11-19T05:43:24;28.30;;;4.73;;
19024;SDS011;9645;51.448;6.260;2023-11-19T05:45:51;36.83;;;4.20;;
19024;SDS011;9645;51.448;6.260;2023-11-19T05:48:18;37.70;;;4.77;;
19024;SDS011;9645;51.448;6.260;2023-11-19T05:50:46;33.37;;;3.73;;
19024;SDS011;9645;51.448;6.260;2023-11-19T05:53:16;19.70;;;4.17;;
19024;SDS011;9645;51.448;6.260;2023-11-19T05:55:43;41.00;;;3.60;;
19024;SDS011;9645;51.448;6.260;2023-11-19T05:58:14;32.77;;;4.03;;
19024;SDS011;9645;51.448;6.260;2023-11-19T06:00:41;33.63;;;4.83;;
19024;SDS011;9645;51.448;6.260;2023-11-19T06:03:09;37.07;;;4.50;;
19024;SDS011;9645;51.448;6.260;2023-11-19T06:05:36;26.23;;;4.03;;
19024;SDS011;9645;51.448;6.260;2023-11-19T06:08:04;21.67;;;3.70;;
19024;SDS011;9645;51.448;6.260;2023-11-19T06:10:33;21.43;;;3.40;;
19024;SDS011;9645;51.448;6.260;2023-11-19T06:13:00;20.97;;;3.50;;
19024;SDS011;9645;51.448;6.260;2023-11-19T06:15:30;47.77;;;5.03;;
19024;SDS011;9645;51.448;6.260;2023-11-19T06:17:58;25.50;;;4.40;;
19024;SDS011;9645;51.448;6.260;2023-11-19T06:20:26;33.37;;;4.30;;
19024;SDS011;9645;51.448;6.260;2023-11-19T06:22:54;20.63;;;3.40;;
19024;SDS011;9645;51.448;6.260;2023-11-19T06:25:21;29.57;;;3.90;;
19024;SDS011;9645;51.448;6.260;2023-11-19T06:27:51;27.77;;;4.17;;
19024;SDS011;9645;51.448;6.260;2023-11-19T06:30:18;25.73;;;3.60;;
19024;SDS011;9645;51.448;6.260;2023-11-19T06:32:46;25.77;;;4.00;;
19024;SDS011;9645;51.448;6.260;2023-11-19T06:35:13;37.57;;;4.70;;
19024;SDS011;9645;51.448;6.260;2023-11-19T06:37:40;23.20;;;3.50;;
19024;SDS011;9645;51.448;6.260;2023-11-19T06:40:08;35.25;;;4.60;;
19024;SDS011;9645;51.448;6.260;2023-11-19T06:42:37;26.83;;;3.73;;
19024;SDS011;9645;51.448;6.260;2023-11-19T06:45:06;30.48;;;3.78;;
19024;SDS011;9645;51.448;6.260;2023-11-19T06:47:34;26.40;;;3.37;;
19024;SDS011;9645;51.448;6.260;2023-11-19T06:50:02;31.53;;;4.90;;
19024;SDS011;9645;51.448;6.260;2023-11-19T06:52:30;23.50;;;3.00;;
19024;SDS011;9645;51.448;6.260;2023-11-19T06:54:58;30.30;;;4.20;;
19024;SDS011;9645;51.448;6.260;2023-11-19T06:57:25;26.07;;;3.93;;
19024;SDS011;9645;51.448;6.260;2023-11-19T06:59:54;29.17;;;3.90;;
19024;SDS011;9645;51.448;6.260;2023-11-19T07:02:23;34.93;;;3.80;;
19024;SDS011;9645;51.448;6.260;2023-11-19T07:04:51;32.73;;;3.47;;
19024;SDS011;9645;51.448;6.260;2023-11-19T07:07:19;26.00;;;4.20;;
19024;SDS011;9645;51.448;6.260;2023-11-19T07:09:46;24.40;;;3.13;;
19024;SDS011;9645;51.448;6.260;2023-11-19T07:12:14;29.03;;;3.47;;
19024;SDS011;9645;51.448;6.260;2023-11-19T07:14:41;39.20;;;3.97;;
19024;SDS011;9645;51.448;6.260;2023-11-19T07:17:09;27.23;;;3.20;;
19024;SDS011;9645;51.448;6.260;2023-11-19T07:19:37;24.27;;;2.90;;
19024;SDS011;9645;51.448;6.260;2023-11-19T07:22:05;43.33;;;4.10;;
19024;SDS011;9645;51.448;6.260;2023-11-19T07:24:33;29.43;;;4.00;;
19024;SDS011;9645;51.448;6.260;2023-11-19T07:27:00;41.03;;;4.10;;
19024;SDS011;9645;51.448;6.260;2023-11-19T07:29:29;27.50;;;3.57;;
19024;SDS011;9645;51.448;6.260;2023-11-19T07:31:57;30.70;;;3.57;;
19024;SDS011;9645;51.448;6.260;2023-11-19T07:34:26;28.17;;;3.67;;
19024;SDS011;9645;51.448;6.260;2023-11-19T07:36:55;34.17;;;4.27;;
19024;SDS011;9645;51.448;6.260;2023-11-19T07:39:27;35.55;;;4.00;;
19024;SDS011;9645;51.448;6.260;2023-11-19T07:41:54;35.10;;;3.20;;
19024;SDS011;9645;51.448;6.260;2023-11-19T07:44:23;36.87;;;3.57;;
19024;SDS011;9645;51.448;6.260;2023-11-19T07:46:51;31.40;;;3.53;;
19024;SDS011;9645;51.448;6.260;2023-11-19T07:49:18;26.93;;;5.50;;
19024;SDS011;9645;51.448;6.260;2023-11-19T07:51:46;22.50;;;3.00;;
19024;SDS011;9645;51.448;6.260;2023-11-19T07:54:14;24.73;;;3.33;;
19024;SDS011;9645;51.448;6.260;2023-11-19T07:56:41;25.33;;;4.00;;
19024;SDS011;9645;51.448;6.260;2023-11-19T07:59:10;25.03;;;3.40;;
19024;SDS011;9645;51.448;6.260;2023-11-19T08:01:37;21.20;;;3.40;;
19024;SDS011;9645;51.448;6.260;2023-11-19T08:04:04;36.23;;;3.70;;
19024;SDS011;9645;51.448;6.260;2023-11-19T08:06:32;29.27;;;3.40;;
19024;SDS011;9645;51.448;6.260;2023-11-19T08:08:59;28.00;;;3.50;;
19024;SDS011;9645;51.448;6.260;2023-11-19T08:11:27;29.53;;;4.03;;
19024;SDS011;9645;51.448;6.260;2023-11-19T08:13:55;44.37;;;4.00;;
19024;SDS011;9645;51.448;6.260;2023-11-19T08:16:22;22.17;;;3.73;;
19024;SDS011;9645;51.448;6.260;2023-11-19T08:18:49;28.97;;;3.17;;
19024;SDS011;9645;51.448;6.260;2023-11-19T08:21:17;20.60;;;4.17;;
19024;SDS011;9645;51.448;6.260;2023-11-19T08:23:45;35.73;;;3.73;;
19024;SDS011;9645;51.448;6.260;2023-11-19T08:26:14;26.93;;;3.40;;
19024;SDS011;9645;51.448;6.260;2023-11-19T08:28:42;35.07;;;4.40;;
19024;SDS011;9645;51.448;6.260;2023-11-19T08:31:10;34.27;;;3.70;;
19024;SDS011;9645;51.448;6.260;2023-11-19T08:33:37;30.33;;;3.80;;
19024;SDS011;9645;51.448;6.260;2023-11-19T08:36:04;19.00;;;2.90;;
19024;SDS011;9645;51.448;6.260;2023-11-19T08:38:32;23.23;;;3.77;;
19024;SDS011;9645;51.448;6.260;2023-11-19T08:40:59;23.43;;;3.87;;
19024;SDS011;9645;51.448;6.260;2023-11-19T08:43:26;36.17;;;4.50;;
19024;SDS011;9645;51.448;6.260;2023-11-19T08:45:55;24.63;;;3.40;;
19024;SDS011;9645;51.448;6.260;2023-11-19T08:48:22;29.17;;;3.20;;
19024;SDS011;9645;51.448;6.260;2023-11-19T08:50:51;21.53;;;3.77;;
19024;SDS011;9645;51.448;6.260;2023-11-19T08:53:18;25.97;;;3.73;;
19024;SDS011;9645;51.448;6.260;2023-11-19T08:55:45;24.90;;;3.37;;
19024;SDS011;9645;51.448;6.260;2023-11-19T08:58:14;33.43;;;4.30;;
19024;SDS011;9645;51.448;6.260;2023-11-19T09:00:43;39.10;;;3.73;;
19024;SDS011;9645;51.448;6.260;2023-11-19T09:03:11;19.23;;;3.00;;
19024;SDS011;9645;51.448;6.260;2023-11-19T09:05:39;23.70;;;3.93;;
19024;SDS011;9645;51.448;6.260;2023-11-19T09:08:06;23.17;;;4.00;;
19024;SDS011;9645;51.448;6.260;2023-11-19T09:10:33;22.50;;;3.10;;
19024;SDS011;9645;51.448;6.260;2023-11-19T09:13:01;25.30;;;2.90;;
19024;SDS011;9645;51.448;6.260;2023-11-19T09:15:28;32.60;;;4.03;;
19024;SDS011;9645;51.448;6.260;2023-11-19T09:17:57;23.13;;;3.40;;
19024;SDS011;9645;51.448;6.260;2023-11-19T09:20:26;25.23;;;3.53;;
19024;SDS011;9645;51.448;6.260;2023-11-19T09:22:57;23.03;;;3.63;;
19024;SDS011;9645;51.448;6.260;2023-11-19T09:25:24;28.83;;;3.00;;
19024;SDS011;9645;51.448;6.260;2023-11-19T09:27:52;18.13;;;3.10;;
19024;SDS011;9645;51.448;6.260;2023-11-19T09:30:19;27.77;;;4.47;;
19024;SDS011;9645;51.448;6.260;2023-11-19T09:32:46;26.73;;;3.63;;
19024;SDS011;9645;51.448;6.260;2023-11-19T09:35:13;22.67;;;3.20;;
19024;SDS011;9645;51.448;6.260;2023-11-19T09:37:42;27.00;;;3.47;;
19024;SDS011;9645;51.448;6.260;2023-11-19T09:40:10;26.80;;;4.10;;
19024;SDS011;9645;51.448;6.260;2023-11-19T09:42:39;20.77;;;3.00;;
19024;SDS011;9645;51.448;6.260;2023-11-19T09:45:10;25.83;;;3.87;;
19024;SDS011;9645;51.448;6.260;2023-11-19T09:47:39;34.37;;;3.83;;
19024;SDS011;9645;51.448;6.260;2023-11-19T09:50:07;30.83;;;3.40;;
19024;SDS011;9645;51.448;6.260;2023-11-19T09:52:34;32.43;;;4.23;;
19024;SDS011;9645;51.448;6.260;2023-11-19T09:55:05;29.87;;;4.03;;
19024;SDS011;9645;51.448;6.260;2023-11-19T09:57:32;36.83;;;4.77;;
19024;SDS011;9645;51.448;6.260;2023-11-19T10:00:03;22.40;;;4.07;;
19024;SDS011;9645;51.448;6.260;2023-11-19T10:02:31;32.40;;;4.50;;
19024;SDS011;9645;51.448;6.260;2023-11-19T10:05:02;23.20;;;3.30;;
19024;SDS011;9645;51.448;6.260;2023-11-19T10:07:31;19.40;;;3.50;;
19024;SDS011;9645;51.448;6.260;2023-11-19T10:09:59;42.13;;;3.70;;
19024;SDS011;9645;51.448;6.260;2023-11-19T10:12:30;30.00;;;3.70;;
19024;SDS011;9645;51.448;6.260;2023-11-19T10:14:57;24.80;;;3.90;;
19024;SDS011;9645;51.448;6.260;2023-11-19T10:17:27;23.43;;;3.20;;
19024;SDS011;9645;51.448;6.260;2023-11-19T10:19:55;28.83;;;5.07;;
19024;SDS011;9645;51.448;6.260;2023-11-19T10:22:23;25.90;;;3.50;;
19024;SDS011;9645;51.448;6.260;2023-11-19T10:24:52;21.10;;;3.63;;
19024;SDS011;9645;51.448;6.260;2023-11-19T10:27:19;33.60;;;3.90;;
19024;SDS011;9645;51.448;6.260;2023-11-19T10:29:49;20.43;;;3.23;;
19024;SDS011;9645;51.448;6.260;2023-11-19T10:32:16;20.97;;;3.93;;
19024;SDS011;9645;51.448;6.260;2023-11-19T10:34:43;17.90;;;3.03;;
19024;SDS011;9645;51.448;6.260;2023-11-19T10:37:20;19.67;;;3.43;;
19024;SDS011;9645;51.448;6.260;2023-11-19T10:39:54;13.57;;;3.40;;
19024;SDS011;9645;51.448;6.260;2023-11-19T10:42:22;23.20;;;3.20;;
19024;SDS011;9645;51.448;6.260;2023-11-19T10:44:51;22.30;;;3.10;;
19024;SDS011;9645;51.448;6.260;2023-11-19T10:47:18;28.80;;;4.30;;
19024;SDS011;9645;51.448;6.260;2023-11-19T10:49:47;18.10;;;3.90;;
19024;SDS011;9645;51.448;6.260;2023-11-19T10:52:18;18.00;;;3.63;;
19024;SDS011;9645;51.448;6.260;2023-11-19T10:54:48;33.40;;;4.80;;
19024;SDS011;9645;51.448;6.260;2023-11-19T10:57:17;13.00;;;3.27;;
19024;SDS011;9645;51.448;6.260;2023-11-19T10:59:46;28.40;;;3.43;;
19024;SDS011;9645;51.448;6.260;2023-11-19T11:02:16;24.87;;;2.90;;
19024;SDS011;9645;51.448;6.260;2023-11-19T11:04:45;20.17;;;3.27;;
19024;SDS011;9645;51.448;6.260;2023-11-19T11:07:14;27.93;;;3.63;;
19024;SDS011;9645;51.448;6.260;2023-11-19T11:09:42;34.07;;;4.70;;
19024;SDS011;9645;51.448;6.260;2023-11-19T11:12:11;23.70;;;3.80;;
19024;SDS011;9645;51.448;6.260;2023-11-19T11:14:39;25.27;;;3.83;;
19024;SDS011;9645;51.448;6.260;2023-11-19T11:17:08;22.43;;;4.10;;
19024;SDS011;9645;51.448;6.260;2023-11-19T11:19:39;27.23;;;3.10;;
19024;SDS011;9645;51.448;6.260;2023-11-19T11:22:09;31.00;;;4.23;;
19024;SDS011;9645;51.448;6.260;2023-11-19T11:24:45;16.93;;;2.70;;
19024;SDS011;9645;51.448;6.260;2023-11-19T11:27:35;23.90;;;3.30;;
19024;SDS011;9645;51.448;6.260;2023-11-19T11:30:18;25.93;;;3.80;;
19024;SDS011;9645;51.448;6.260;2023-11-19T11:32:55;25.00;;;3.57;;
19024;SDS011;9645;51.448;6.260;2023-11-19T11:35:33;16.10;;;2.90;;
19024;SDS011;9645;51.448;6.260;2023-11-19T11:38:12;22.30;;;2.90;;
19024;SDS011;9645;51.448;6.260;2023-11-19T11:40:42;16.80;;;2.93;;
19024;SDS011;9645;51.448;6.260;2023-11-19T11:46:08;24.30;;;3.50;;
19024;SDS011;9645;51.448;6.260;2023-11-19T11:48:56;19.97;;;3.50;;
19024;SDS011;9645;51.448;6.260;2023-11-19T11:54:29;17.10;;;2.90;;
19024;SDS011;9645;51.448;6.260;2023-11-19T11:57:00;25.10;;;3.70;;
19024;SDS011;9645;51.448;6.260;2023-11-19T11:59:43;38.03;;;4.10;;
19024;SDS011;9645;51.448;6.260;2023-11-19T12:02:13;22.57;;;3.33;;
19024;SDS011;9645;51.448;6.260;2023-11-19T12:04:41;12.80;;;3.17;;
19024;SDS011;9645;51.448;6.260;2023-11-19T12:07:13;22.97;;;3.27;;
19024;SDS011;9645;51.448;6.260;2023-11-19T12:09:46;32.13;;;2.93;;
19024;SDS011;9645;51.448;6.260;2023-11-19T12:12:17;16.60;;;2.70;;
19024;SDS011;9645;51.448;6.260;2023-11-19T12:15:03;28.13;;;3.70;;
19024;SDS011;9645;51.448;6.260;2023-11-19T12:17:41;20.33;;;3.20;;
19024;SDS011;9645;51.448;6.260;2023-11-19T12:20:37;23.97;;;2.90;;
19024;SDS011;9645;51.448;6.260;2023-11-19T12:23:04;19.30;;;2.77;;
19024;SDS011;9645;51.448;6.260;2023-11-19T12:25:35;24.80;;;3.23;;
19024;SDS011;9645;51.448;6.260;2023-11-19T12:28:02;16.13;;;2.90;;
19024;SDS011;9645;51.448;6.260;2023-11-19T12:30:30;17.77;;;2.83;;
19024;SDS011;9645;51.448;6.260;2023-11-19T12:32:57;15.33;;;2.57;;
19024;SDS011;9645;51.448;6.260;2023-11-19T12:35:24;17.17;;;3.43;;
19024;SDS011;9645;51.448;6.260;2023-11-19T12:37:52;10.00;;;2.40;;
19024;SDS011;9645;51.448;6.260;2023-11-19T12:40:19;15.30;;;3.00;;
19024;SDS011;9645;51.448;6.260;2023-11-19T12:42:50;19.27;;;3.33;;
19024;SDS011;9645;51.448;6.260;2023-11-19T12:45:17;19.30;;;2.90;;
19024;SDS011;9645;51.448;6.260;2023-11-19T12:47:46;21.97;;;3.10;;
19024;SDS011;9645;51.448;6.260;2023-11-19T12:50:14;29.10;;;3.47;;
19024;SDS011;9645;51.448;6.260;2023-11-19T12:52:54;19.20;;;3.03;;
19024;SDS011;9645;51.448;6.260;2023-11-19T12:55:25;16.80;;;3.20;;
19024;SDS011;9645;51.448;6.260;2023-11-19T12:57:54;17.80;;;3.03;;
19024;SDS011;9645;51.448;6.260;2023-11-19T13:00:23;17.80;;;2.23;;
19024;SDS011;9645;51.448;6.260;2023-11-19T13:02:51;30.63;;;3.33;;
19024;SDS011;9645;51.448;6.260;2023-11-19T13:05:23;18.63;;;3.60;;
19024;SDS011;9645;51.448;6.260;2023-11-19T13:07:57;32.37;;;4.10;;
19024;SDS011;9645;51.448;6.260;2023-11-19T13:10:25;15.17;;;3.40;;
19024;SDS011;9645;51.448;6.260;2023-11-19T13:13:06;22.17;;;3.23;;
19024;SDS011;9645;51.448;6.260;2023-11-19T13:15:34;24.53;;;3.60;;
19024;SDS011;9645;51.448;6.260;2023-11-19T13:18:02;15.63;;;2.50;;
19024;SDS011;9645;51.448;6.260;2023-11-19T13:20:29;30.10;;;4.13;;
19024;SDS011;9645;51.448;6.260;2023-11-19T13:22:58;23.00;;;4.37;;
19024;SDS011;9645;51.448;6.260;2023-11-19T13:25:26;24.37;;;3.23;;
19024;SDS011;9645;51.448;6.260;2023-11-19T13:27:53;20.70;;;2.67;;
19024;SDS011;9645;51.448;6.260;2023-11-19T13:30:22;18.40;;;3.80;;
19024;SDS011;9645;51.448;6.260;2023-11-19T13:32:49;16.67;;;2.80;;
19024;SDS011;9645;51.448;6.260;2023-11-19T13:35:17;22.33;;;3.90;;
19024;SDS011;9645;51.448;6.260;2023-11-19T13:37:45;24.77;;;2.90;;
19024;SDS011;9645;51.448;6.260;2023-11-19T13:40:12;28.67;;;3.20;;
19024;SDS011;9645;51.448;6.260;2023-11-19T13:42:40;26.17;;;3.50;;
19024;SDS011;9645;51.448;6.260;2023-11-19T13:45:08;30.87;;;3.27;;
19024;SDS011;9645;51.448;6.260;2023-11-19T13:47:38;18.53;;;3.13;;
19024;SDS011;9645;51.448;6.260;2023-11-19T13:50:07;21.50;;;3.20;;
19024;SDS011;9645;51.448;6.260;2023-11-19T13:52:34;28.00;;;2.97;;
19024;SDS011;9645;51.448;6.260;2023-11-19T13:55:03;12.40;;;3.03;;
19024;SDS011;9645;51.448;6.260;2023-11-19T13:57:31;19.20;;;3.00;;
19024;SDS011;9645;51.448;6.260;2023-11-19T13:59:59;20.47;;;3.93;;
19024;SDS011;9645;51.448;6.260;2023-11-19T14:02:30;19.00;;;3.40;;
19024;SDS011;9645;51.448;6.260;2023-11-19T14:04:58;19.10;;;3.17;;
19024;SDS011;9645;51.448;6.260;2023-11-19T14:07:26;22.00;;;2.93;;
19024;SDS011;9645;51.448;6.260;2023-11-19T14:09:53;20.90;;;3.07;;
19024;SDS011;9645;51.448;6.260;2023-11-19T14:12:20;19.40;;;4.07;;
19024;SDS011;9645;51.448;6.260;2023-11-19T14:14:48;21.80;;;3.27;;
19024;SDS011;9645;51.448;6.260;2023-11-19T14:17:15;14.80;;;3.23;;
19024;SDS011;9645;51.448;6.260;2023-11-19T14:19:43;25.43;;;4.07;;
19024;SDS011;9645;51.448;6.260;2023-11-19T14:22:12;17.20;;;4.17;;
19024;SDS011;9645;51.448;6.260;2023-11-19T14:24:39;26.13;;;3.27;;
19024;SDS011;9645;51.448;6.260;2023-11-19T14:27:08;20.60;;;3.10;;
19024;SDS011;9645;51.448;6.260;2023-11-19T14:29:35;18.93;;;2.40;;
19024;SDS011;9645;51.448;6.260;2023-11-19T14:32:03;19.93;;;3.63;;
19024;SDS011;9645;51.448;6.260;2023-11-19T14:34:30;18.83;;;3.80;;
19024;SDS011;9645;51.448;6.260;2023-11-19T14:36:58;22.40;;;4.30;;
19024;SDS011;9645;51.448;6.260;2023-11-19T14:39:26;22.07;;;2.90;;
19024;SDS011;9645;51.448;6.260;2023-11-19T14:41:56;19.03;;;3.30;;
19024;SDS011;9645;51.448;6.260;2023-11-19T14:44:26;25.63;;;5.60;;
19024;SDS011;9645;51.448;6.260;2023-11-19T14:46:54;31.37;;;7.23;;
19024;SDS011;9645;51.448;6.260;2023-11-19T14:49:22;24.87;;;6.10;;
19024;SDS011;9645;51.448;6.260;2023-11-19T14:51:51;25.23;;;4.77;;
19024;SDS011;9645;51.448;6.260;2023-11-19T14:54:18;24.37;;;4.17;;
19024;SDS011;9645;51.448;6.260;2023-11-19T14:56:47;23.97;;;4.77;;
19024;SDS011;9645;51.448;6.260;2023-11-19T14:59:14;24.67;;;3.93;;
19024;SDS011;9645;51.448;6.260;2023-11-19T15:01:44;31.37;;;7.37;;